This demonstration page uses our WeatherBlox Daily Observations layout. Learn more.

39.29038, -76.61219

Hourly Observations for July 19, 2015

Temp ( °F °C ) Dew Point ( °F °C ) Humidity (%) Winds ( mph kmh ) Pressure ( in mb ) Visibility ( mi km ) Precip ( " mm )
12:54 am 00:54 Mostly Cloudy 81 27.2 71 21.7 72 72 undefined N/A 30.04 1017 N/A 0.02 0.508
1:54 am 01:54 undefined 80 26.7 72 22.2 76 76 undefined N/A 29.87 1012 N/A 0 0
2:54 am 02:54 Clear 80 26.7 52 11 37 37 undefined N/A 29.83 1010 N/A 0 0
3:54 am 03:54 undefined 80 26.7 73 22.8 79 79 undefined N/A 29.86 1011 N/A 0 0
4:54 am 04:54 undefined 79 26.1 74 23.3 85 85 undefined N/A 29.87 1011 N/A 0 0
5:54 am 05:54 undefined 79 26.1 73 22.8 82 82 undefined N/A 29.87 1012 N/A 0 0
8:54 am 08:54 undefined 84 28.9 73 22.8 70 70 undefined N/A 29.89 1012 N/A 0 0
9:54 am 09:54 undefined 88 31.1 74 23.3 63 63 undefined N/A 29.88 1012 N/A 0 0
10:54 am 10:54 undefined 91 32.8 73 22.8 56 56 undefined N/A 29.88 1012 N/A 0 0
11:54 am 11:54 Partly Cloudy 78 25.4 44 6.6 30 30 undefined N/A 29.98 1015 N/A 0 0
12:54 pm 12:54 Mostly Cloudy 93 33.9 71 21.7 49 49 undefined N/A 29.86 1011 N/A 0 0
1:54 pm 13:54 Cloudy 52 11.1 49 9.4 89 89 undefined N/A 30.32 1027 N/A 0 0.0254
2:54 pm 14:54 Mostly Sunny 93 33.9 74 23.3 54 54 undefined N/A 29.84 1011 N/A 0 0
3:54 pm 15:54 undefined 95 35 69 20.6 43 43 undefined N/A 29.83 1010 N/A 0 0
4:54 pm 16:54 Mostly Cloudy 96 35.6 69 20.6 41 41 undefined N/A 29.8 1009 N/A 0 0
5:54 pm 17:54 Mostly Sunny 95 35 66 18.9 39 39 undefined N/A 29.8 1009 N/A 0 0
6:54 pm 18:54 undefined 93 33.9 67 19.4 42 42 undefined N/A 29.78 1009 N/A 0 0
7:54 pm 19:54 Mostly Cloudy 92 33.3 68 20 46 46 undefined N/A 29.78 1009 N/A 0 0
8:54 pm 20:54 Clear 86 30 74 23.3 67 67 undefined N/A 31 1050 N/A 0 0
9:54 pm 21:54 Cloudy 89 31.7 71 21.7 55 55 undefined N/A 29.8 1009 N/A 0 0
10:54 pm 22:54 Mostly Clear 76 24.4 74 23.3 94 94 undefined N/A 29.96 1015 N/A 0 0
11:54 pm 23:54 undefined 87 30.6 72 22.2 61 61 undefined N/A 29.8 1009 N/A 0 0

Powered by AerisWeather